Avon Lake, Iowa
Current Conditions -  °F | °C
As of 2:54 AM on Wednesday 22 Oct 2014 (Local Time) from KDSM Reporting Station
Clear Clear  
Wind Chill: 43°   Ceiling: Unl
Heat Index: 48°   Visibility: 10mi
Dew Point: 38°   Wind: 10mph
Humidity: 68%   Direction: 130°SE
Pressure: 30.2"   Gusts: NA
Location:  41.4707°N, 93.4797°W
Report Text: KDSM 220754Z 13009KT 10SM CLR 09/03 A3020 RMK AO2 SLP225 T00890033
Loading
Personal Weather Stations






























Interactive Weather Map
Tropical Storm Tracking
New forecast layout! Learn more

10-Day Weather Forecast

Advertisements
Track Severe Weather on mobile